Lake View, NY (14085)

7:34 PM EDT on August 31, 2016 (GMT -0400)
Old Jennings Road | | Change Station

Elev 780 ft 42.67 °N, 78.87 °W | Updated 12 minutes ago

Mostly Cloudy
Mostly Cloudy
75.7 °F
Feels Like 78 °F
N
5.6
Wind Variable Wind from South
Gusts 8.1 mph

Today
High -- | Low -- °F
--% Chance of Precip.
Yesterday
High -- | Low -- °F
Precip. -- in
Pressure 29.88 in
Visibility 10.0 miles
Clouds Few 3000 ft
Mostly Cloudy 8500 ft
Mostly Cloudy 12000 ft
Mostly Cloudy 17000 ft
Mostly Cloudy 25000 ft
Heat Index 78 °F
Dew Point 57 °F
Humidity 52%
Rainfall 0.00 in
Snow Depth Not available.
6:39 AM 7:50 PM
Waning Crescent, 0% visible
METAR KBUF 312254Z 23007KT 10SM FEW030 BKN085 BKN120 BKN170 BKN250 22/19 A2989 RMK AO2 LTG DSNT NE SLP117 CB DSNT NE TCU DSNT N-NE E T02220194
Pressure 29.88 in
Visibility 10.0 miles
Clouds Few 3000 ft
Mostly Cloudy 8500 ft
Mostly Cloudy 12000 ft
Mostly Cloudy 17000 ft
Mostly Cloudy 25000 ft
Heat Index 78 °F
Dew Point 57 °F
Humidity 52%
Rainfall 0.00 in
Snow Depth Not available.
6:39 AM 7:50 PM
Waning Crescent, 0% visible
METAR KBUF 312254Z 23007KT 10SM FEW030 BKN085 BKN120 BKN170 BKN250 22/19 A2989 RMK AO2 LTG DSNT NE SLP117 CB DSNT NE TCU DSNT N-NE E T02220194

10-Day Weather Forecast

Almanac

Astronomy

Aug. 31, 2016 Rise Set
Actual Time
Civil Twilight
Nautical Twilight
Astronomical Twilight
Moon
Length of Visible Light
Length of Day
Tomorrow will be .
, % of the Moon is Illuminated

Today's Extremes

State Highs State Lows

Community

WunderPhotos

Upload Photos

1,936,215 photos uploaded!

WunderBlog® & News

Nearby

Air Quality

  Air Quality AQ Index Pollutant
Not available.

Snow Depth

Station Depth Elevation

Earthquake Activity

City Distance Mag. Time & Date
Minimum magnitude displayed is 2.5.

Coastal Water Temperatures

Place Temperature

Stations

Nearby Weather Stations

Station Location Temp. Windchill Dew Point Humidity Wind Precip. Elev Updated Type
                   

Watches & Warnings

There are currently no watches in effect.